Time;durP1;ratioP1;P1;durP2;ratioP2;P2;SDS_P1;SDS_P2;PMS_P1;PMS_P2;Temp;Humidity;BMP_temperature;BMP_pressure;BME280_temperature;BME280_humidity;BME280_pressure;Samples;Min_cycle;Max_cycle;Signal;HPM_P1;HPM_P2
2023/10/23 00:01:47;;;;;;;4.60;3.70;;;;;;;11.12;100.00;101179.38;5016041;28;20030;-63
2023/10/23 00:04:12;;;;;;;4.50;3.60;;;;;;;11.06;100.00;101174.03;5015923;28;20033;-63
2023/10/23 00:06:38;;;;;;;5.35;3.47;;;;;;;11.01;100.00;101176.59;5015716;28;20026;-63
2023/10/23 00:12:25;;;;;;;6.43;4.20;;;;;;;10.73;100.00;101132.13;5091655;23;20508;-91
2023/10/23 00:14:50;;;;;;;5.50;3.53;;;;;;;10.64;100.00;101134.63;5034644;28;20069;-91
2023/10/23 00:17:16;;;;;;;4.72;3.40;;;;;;;10.62;100.00;101123.13;5035740;28;20052;-91
2023/10/23 00:19:41;;;;;;;6.55;3.47;;;;;;;10.78;100.00;101147.19;5034836;28;20034;-91
2023/10/23 00:22:06;;;;;;;8.70;3.72;;;;;;;10.96;100.00;101174.75;5035915;28;20025;-92
2023/10/23 00:24:32;;;;;;;5.97;3.50;;;;;;;10.60;100.00;101124.88;5018228;28;20029;-91
2023/10/23 00:26:59;;;;;;;4.35;3.22;;;;;;;10.66;100.00;101143.47;5035912;28;20033;-91
2023/10/23 00:29:25;;;;;;;4.13;3.45;;;;;;;10.65;100.00;101142.56;5035923;28;20493;-92
2023/10/23 00:31:50;;;;;;;4.15;3.42;;;;;;;10.86;100.00;101189.59;5035769;28;20029;-91
2023/10/23 00:34:16;;;;;;;4.85;3.50;;;;;;;10.77;100.00;101169.19;5035683;28;20076;-90
2023/10/23 00:36:41;;;;;;;7.53;3.30;;;;;;;10.67;100.00;101153.19;5034669;28;20071;-91
2023/10/23 00:39:07;;;;;;;4.28;3.38;;;;;;;10.63;100.00;101154.91;5034550;28;20449;-91
2023/10/23 00:41:33;;;;;;;6.07;3.53;;;;;;;10.82;100.00;101186.88;5035863;28;20504;-91
2023/10/23 00:44:00;;;;;;;5.22;3.45;;;;;;;10.73;100.00;101192.91;5035715;28;20033;-92
2023/10/23 00:46:29;;;;;;;5.40;3.38;;;;;;;10.71;100.00;101190.25;5034442;28;20037;-92
2023/10/23 00:48:55;;;;;;;5.57;3.60;;;;;;;10.69;100.00;101186.69;5035671;28;20029;-92
2023/10/23 00:51:21;;;;;;;5.32;3.67;;;;;;;10.68;100.00;101174.34;5035376;28;20033;-91
2023/10/23 00:53:47;;;;;;;6.55;3.42;;;;;;;10.76;100.00;101182.41;5034272;28;20040;-88
2023/10/23 00:56:12;;;;;;;5.85;3.58;;;;;;;10.72;100.00;101172.66;5033789;28;20116;-91
2023/10/23 00:58:40;;;;;;;8.05;3.75;;;;;;;10.80;100.00;101192.16;5035403;28;20029;-90
2023/10/23 01:01:09;;;;;;;5.82;3.63;;;;;;;10.62;100.00;101165.41;5035188;28;20036;-91
2023/10/23 01:03:34;;;;;;;7.75;3.70;;;;;;;10.83;100.00;101188.66;5035176;28;20025;-90
2023/10/23 01:06:00;;;;;;;5.43;3.42;;;;;;;10.74;100.00;101182.34;5035273;28;20034;-90
2023/10/23 01:08:26;;;;;;;6.65;3.70;;;;;;;10.69;100.00;101184.03;5034884;28;20035;-91
2023/10/23 01:10:51;;;;;;;8.38;3.80;;;;;;;10.57;100.00;101177.69;5035061;28;20103;-91
2023/10/23 01:13:17;;;;;;;4.78;3.20;;;;;;;10.75;100.00;101207.94;5035026;28;20053;-91
2023/10/23 01:15:43;;;;;;;6.85;4.10;;;;;;;10.53;100.00;101168.81;5033743;28;20400;-90
2023/10/23 01:18:08;;;;;;;7.75;3.90;;;;;;;10.68;100.00;101200.78;5017243;28;20105;-90
2023/10/23 01:20:34;;;;;;;7.38;4.03;;;;;;;10.53;100.00;101182.00;5033643;28;20393;-91
2023/10/23 01:23:01;;;;;;;7.57;3.78;;;;;;;10.50;100.00;101176.72;5034819;28;20056;-90
2023/10/23 01:25:27;;;;;;;6.18;3.90;;;;;;;10.71;100.00;101211.41;5033491;28;20539;-90
2023/10/23 01:27:53;;;;;;;8.18;4.25;;;;;;;10.69;100.00;101205.19;5034984;28;20030;-91
2023/10/23 01:30:18;;;;;;;6.78;4.20;;;;;;;10.66;100.00;101214.81;5033541;28;20037;-90
2023/10/23 01:32:44;;;;;;;6.90;3.95;;;;;;;10.54;100.00;101207.59;5034570;28;20036;-90
2023/10/23 01:35:10;;;;;;;7.93;4.03;;;;;;;10.57;100.00;101204.97;5033051;28;20363;-90
2023/10/23 01:37:36;;;;;;;5.10;3.90;;;;;;;10.55;100.00;101203.19;5034202;28;20041;-90
2023/10/23 01:40:03;;;;;;;7.03;3.80;;;;;;;10.47;100.00;101201.31;5034574;28;20033;-90
2023/10/23 01:42:30;;;;;;;6.70;3.85;;;;;;;10.48;100.00;101195.16;5034601;28;20033;-90
2023/10/23 01:44:55;;;;;;;6.40;3.97;;;;;;;10.35;100.00;101173.78;5034605;28;20192;-91
2023/10/23 01:47:22;;;;;;;6.45;3.97;;;;;;;10.41;100.00;101195.94;5033194;28;20517;-90
2023/10/23 01:49:49;;;;;;;7.80;4.15;;;;;;;10.14;100.00;101158.44;5034462;28;20116;-90
2023/10/23 01:52:14;;;;;;;6.43;4.13;;;;;;;10.36;100.00;101196.69;5034140;28;20474;-91
2023/10/23 01:54:39;;;;;;;8.70;4.18;;;;;;;10.14;100.00;101174.28;5034060;28;20036;-91
2023/10/23 01:57:05;;;;;;;7.70;4.78;;;;;;;10.25;100.00;101189.50;5032842;28;20537;-91
2023/10/23 01:59:30;;;;;;;8.57;3.92;;;;;;;10.16;100.00;101186.66;5034138;28;20029;-91
2023/10/23 02:01:58;;;;;;;9.27;4.40;;;;;;;10.17;100.00;101206.03;5033819;28;20398;-90
2023/10/23 02:04:23;;;;;;;8.55;4.22;;;;;;;10.12;100.00;101202.41;5049526;28;20037;-91
2023/10/23 02:06:49;;;;;;;6.25;4.15;;;;;;;9.95;100.00;101170.44;5033982;28;20393;-90
2023/10/23 02:09:16;;;;;;;9.55;4.40;;;;;;;10.04;100.00;101197.88;5034073;28;20083;-90
2023/10/23 02:11:41;;;;;;;8.43;4.20;;;;;;;10.06;100.00;101178.53;5033864;28;20112;-91
2023/10/23 02:14:07;;;;;;;8.82;4.50;;;;;;;10.04;100.00;101189.97;5034106;28;20136;-91
2023/10/23 02:16:32;;;;;;;8.60;4.35;;;;;;;10.00;100.00;101193.41;5033671;28;20041;-90
2023/10/23 02:18:57;;;;;;;7.47;4.18;;;;;;;9.96;100.00;101202.13;5033959;28;20116;-90
2023/10/23 02:21:23;;;;;;;7.95;4.00;;;;;;;9.93;100.00;101195.88;5033721;28;20044;-91
2023/10/23 02:23:48;;;;;;;8.48;4.20;;;;;;;9.91;100.00;101200.25;5033943;28;20389;-91
2023/10/23 02:26:13;;;;;;;8.02;4.35;;;;;;;9.74;100.00;101181.47;5032639;28;20029;-91
2023/10/23 02:28:39;;;;;;;7.57;4.25;;;;;;;9.79;100.00;101180.69;5033703;28;20025;-90
2023/10/23 02:31:05;;;;;;;9.45;4.25;;;;;;;9.95;100.00;101217.94;5033483;28;20037;-90
2023/10/23 02:33:30;;;;;;;10.75;4.50;;;;;;;9.92;100.00;101220.50;5033670;28;20395;-90
2023/10/23 02:35:56;;;;;;;6.72;4.18;;;;;;;9.92;100.00;101226.69;5033971;28;20037;-90
2023/10/23 02:38:21;;;;;;;8.93;4.30;;;;;;;9.81;100.00;101208.84;5033232;28;20037;-91
2023/10/23 02:40:53;;;;;;;6.80;4.00;;;;;;;9.90;100.00;101228.41;5033211;28;20068;-90
2023/10/23 02:43:20;;;;;;;7.13;3.85;;;;;;;9.95;100.00;101224.09;5033482;28;20042;-90
2023/10/23 02:45:46;;;;;;;7.53;4.10;;;;;;;9.99;100.00;101232.97;5032328;28;20095;-91
2023/10/23 02:48:12;;;;;;;7.07;4.25;;;;;;;9.89;100.00;101213.44;5033509;28;20466;-91
2023/10/23 02:50:37;;;;;;;8.05;4.55;;;;;;;9.96;100.00;101225.00;5033531;28;20124;-91
2023/10/23 02:53:05;;;;;;;10.20;4.13;;;;;;;9.97;100.00;101221.47;5033429;28;20112;-90
2023/10/23 02:55:30;;;;;;;6.47;4.10;;;;;;;9.86;100.00;101208.09;5032246;28;20026;-91
2023/10/23 02:57:56;;;;;;;6.88;4.38;;;;;;;10.01;100.00;101224.22;5033496;28;20060;-91
2023/10/23 03:00:22;;;;;;;11.55;4.32;;;;;;;9.99;100.00;101219.78;5018638;28;20100;-91
2023/10/23 03:02:48;;;;;;;7.93;4.40;;;;;;;9.95;100.00;101202.09;5036491;28;20163;-90
2023/10/23 03:05:14;;;;;;;4.90;3.65;;;;;;;9.95;100.00;101229.38;5037650;28;20120;-90
2023/10/23 03:07:40;;;;;;;8.18;3.72;;;;;;;9.76;100.00;101209.69;5036195;28;20434;-90
2023/10/23 03:10:06;;;;;;;6.07;3.70;;;;;;;9.85;100.00;101226.53;5037122;28;20481;-90
2023/10/23 03:12:32;;;;;;;6.65;3.65;;;;;;;9.90;100.00;101227.53;5036101;28;20089;-90
2023/10/23 03:14:57;;;;;;;7.05;4.10;;;;;;;9.88;100.00;101214.28;5037882;28;20118;-90
2023/10/23 03:17:22;;;;;;;7.90;3.72;;;;;;;9.81;100.00;101212.41;5037272;28;20064;-91
2023/10/23 03:19:48;;;;;;;8.30;3.60;;;;;;;9.83;100.00;101212.41;5037117;28;20029;-91
2023/10/23 03:22:13;;;;;;;9.00;3.40;;;;;;;9.88;100.00;101222.19;5037130;28;20065;-90
2023/10/23 03:24:39;;;;;;;5.13;3.17;;;;;;;9.81;100.00;101224.69;5035918;28;20131;-92
2023/10/23 03:27:04;;;;;;;6.32;3.08;;;;;;;9.82;100.00;101226.47;5035811;28;20038;-91
2023/10/23 03:29:30;;;;;;;6.85;3.30;;;;;;;9.76;100.00;101236.06;5035886;28;20438;-91
2023/10/23 03:31:58;;;;;;;7.53;3.40;;;;;;;9.64;100.00;101222.63;5036859;28;20122;-91
2023/10/23 03:34:25;;;;;;;6.13;3.25;;;;;;;9.64;100.00;101229.66;5036981;28;20041;-91
2023/10/23 03:36:51;;;;;;;6.05;3.75;;;;;;;9.63;100.00;101230.47;5037053;28;20533;-91
2023/10/23 03:39:16;;;;;;;6.18;3.53;;;;;;;9.63;100.00;101236.66;5036790;28;20116;-90
2023/10/23 03:41:42;;;;;;;5.60;3.15;;;;;;;9.61;100.00;101232.22;5036700;28;20156;-91
2023/10/23 03:44:08;;;;;;;5.25;3.10;;;;;;;9.63;100.00;101238.41;5035622;28;20038;-91
2023/10/23 03:46:33;;;;;;;28.88;3.88;;;;;;;9.45;100.00;101204.63;5036515;28;20071;-90
2023/10/23 03:48:59;;;;;;;5.25;3.40;;;;;;;9.68;100.00;101242.03;5036676;28;20038;-90
2023/10/23 03:51:24;;;;;;;8.55;3.90;;;;;;;9.62;100.00;101232.22;5018610;28;20033;-90
2023/10/23 03:53:49;;;;;;;7.45;4.15;;;;;;;9.63;100.00;101233.13;5018521;28;20107;-91
2023/10/23 03:56:15;;;;;;;8.52;3.80;;;;;;;9.72;100.00;101239.50;5036340;28;20029;-90
2023/10/23 03:58:40;;;;;;;11.52;4.00;;;;;;;9.72;100.00;101233.31;5036549;28;20099;-90
2023/10/23 04:01:06;;;;;;;7.45;3.80;;;;;;;9.72;100.00;101230.66;5036406;28;20036;-90
2023/10/23 04:03:31;;;;;;;8.68;3.70;;;;;;;9.70;100.00;101233.28;5036443;28;20065;-91
2023/10/23 04:05:56;;;;;;;7.80;3.60;;;;;;;9.73;100.00;101245.66;5036450;28;20038;-91
2023/10/23 04:08:22;;;;;;;25.27;3.55;;;;;;;9.62;100.00;101245.44;5035060;28;20037;-90
2023/10/23 04:10:48;;;;;;;20.98;3.65;;;;;;;9.51;100.00;101250.50;5036172;28;20037;-91
2023/10/23 04:13:15;;;;;;;15.23;3.70;;;;;;;9.45;100.00;101245.06;5035853;28;20054;-90
2023/10/23 04:15:50;;;;;;;10.73;3.55;;;;;;;9.48;100.00;101249.53;5036299;28;20041;-90
2023/10/23 04:18:16;;;;;;;11.90;3.20;;;;;;;9.45;100.00;101252.97;5035171;28;20481;-90
2023/10/23 04:20:41;;;;;;;4.80;3.25;;;;;;;9.15;100.00;101186.38;5036067;28;20033;-90
2023/10/23 04:23:07;;;;;;;5.63;3.10;;;;;;;9.41;100.00;101245.84;5035753;28;20032;-90
2023/10/23 04:25:32;;;;;;;5.43;3.35;;;;;;;9.39;100.00;101234.41;5036073;28;20490;-89
2023/10/23 04:27:57;;;;;;;15.38;3.40;;;;;;;9.09;100.00;101187.16;5036007;28;20060;-90
2023/10/23 04:30:23;;;;;;;10.93;3.00;;;;;;;9.34;100.00;101237.81;5034581;28;20038;-90
2023/10/23 04:32:48;;;;;;;11.27;2.83;;;;;;;9.31;100.00;101254.44;5034755;28;20140;-89
2023/10/23 04:35:14;;;;;;;12.30;2.88;;;;;;;9.19;100.00;101254.16;5034712;28;20080;-89
2023/10/23 04:37:39;;;;;;;4.63;2.75;;;;;;;9.03;100.00;101245.88;5017678;28;20042;-90
2023/10/23 04:40:05;;;;;;;3.92;2.67;;;;;;;8.94;100.00;101240.38;5018089;28;20045;-90
2023/10/23 04:42:31;;;;;;;5.90;2.70;;;;;;;9.04;100.00;101254.69;5034318;28;20034;-90
2023/10/23 04:44:56;;;;;;;4.30;2.53;;;;;;;9.00;100.00;101248.47;5035757;28;20034;-91
2023/10/23 04:47:21;;;;;;;7.97;2.60;;;;;;;9.06;100.00;101252.97;5034366;28;20057;-90
2023/10/23 04:49:47;;;;;;;4.63;2.60;;;;;;;8.80;100.00;101209.31;5035606;28;20486;-90
2023/10/23 04:52:13;;;;;;;3.60;2.78;;;;;;;9.10;100.00;101256.56;5034143;28;20060;-89
2023/10/23 04:54:38;;;;;;;5.55;3.15;;;;;;;9.05;100.00;101243.28;5035322;28;20057;-90
2023/10/23 04:57:04;;;;;;;5.85;3.00;;;;;;;9.11;100.00;101248.69;5035194;28;20473;-90
2023/10/23 04:59:29;;;;;;;10.18;3.42;;;;;;;9.11;100.00;101247.81;5035362;28;20029;-90
2023/10/23 05:01:55;;;;;;;4.20;2.97;;;;;;;9.20;100.00;101253.28;5035256;28;20029;-90
2023/10/23 05:04:20;;;;;;;6.32;3.03;;;;;;;9.25;100.00;101247.28;5035089;28;20025;-90
2023/10/23 05:06:45;;;;;;;13.35;2.92;;;;;;;9.03;100.00;101195.78;5034934;28;20478;-90
2023/10/23 05:09:12;;;;;;;12.07;3.22;;;;;;;9.31;100.00;101235.97;5035334;28;20109;-90
2023/10/23 05:11:38;;;;;;;13.15;2.90;;;;;;;9.26;100.00;101237.63;5034980;28;20033;-91
2023/10/23 05:14:03;;;;;;;15.80;3.10;;;;;;;9.21;100.00;101241.91;5035361;28;20064;-90
2023/10/23 05:16:29;;;;;;;6.57;2.80;;;;;;;9.10;100.00;101241.66;5035073;28;20034;-90
2023/10/23 05:18:54;;;;;;;5.20;2.60;;;;;;;8.96;100.00;101240.44;5017407;28;20075;-91
2023/10/23 05:21:22;;;;;;;3.80;2.60;;;;;;;8.91;100.00;101236.81;5034691;28;20500;-91
2023/10/23 05:23:47;;;;;;;10.18;2.65;;;;;;;9.01;100.00;101246.72;5034728;28;20120;-90
2023/10/23 05:26:14;;;;;;;9.55;3.10;;;;;;;9.02;100.00;101235.31;5034729;28;20061;-90
2023/10/23 05:28:41;;;;;;;10.98;3.38;;;;;;;9.06;100.00;101238.91;5033738;28;20037;-90
2023/10/23 05:31:07;;;;;;;3.45;2.70;;;;;;;8.98;100.00;101222.91;5034778;28;20044;-90
2023/10/23 05:33:33;;;;;;;5.43;3.00;;;;;;;9.06;100.00;101234.53;5017143;28;20040;-90
2023/10/23 05:36:09;;;;;;;4.85;3.13;;;;;;;8.95;100.00;101221.09;5016983;28;20038;-90
2023/10/23 05:38:36;;;;;;;5.85;3.08;;;;;;;8.76;100.00;101192.53;5034551;28;20029;-91
2023/10/23 05:41:02;;;;;;;5.88;3.15;;;;;;;8.88;100.00;101227.09;5033222;28;20040;-90
2023/10/23 05:43:28;;;;;;;5.10;2.90;;;;;;;8.76;100.00;101219.75;5034348;28;20041;-90
2023/10/23 05:45:55;;;;;;;4.40;2.67;;;;;;;8.77;100.00;101220.66;5034555;28;20038;-90
2023/10/23 05:48:20;;;;;;;5.63;2.53;;;;;;;8.61;100.00;101200.06;5034233;28;20492;-90
2023/10/23 05:50:46;;;;;;;4.45;2.70;;;;;;;8.83;100.00;101243.66;5034577;28;20064;-90
2023/10/23 05:53:11;;;;;;;4.00;2.50;;;;;;;8.66;99.81;101225.69;5033233;28;20077;-89
2023/10/23 05:55:36;;;;;;;3.88;2.70;;;;;;;8.71;100.00;101241.59;5033324;28;20156;-90
2023/10/23 05:58:02;;;;;;;4.00;2.97;;;;;;;8.80;100.00;101246.19;5033078;28;20033;-90
2023/10/23 06:00:28;;;;;;;4.28;2.50;;;;;;;8.78;100.00;101238.28;5034212;28;20030;-90
2023/10/23 06:02:53;;;;;;;6.40;2.45;;;;;;;8.87;100.00;101238.47;5033089;28;20385;-90
2023/10/23 06:05:19;;;;;;;16.20;2.65;;;;;;;8.76;100.00;101219.75;5016125;28;20330;-90
2023/10/23 06:07:44;;;;;;;10.00;2.80;;;;;;;8.97;100.00;101242.22;5016005;28;20040;-90
2023/10/23 06:10:10;;;;;;;7.70;2.70;;;;;;;8.97;100.00;101243.09;5033779;28;20033;-89
2023/10/23 06:12:35;;;;;;;3.17;2.70;;;;;;;8.81;100.00;101213.72;5033099;28;20045;-90
2023/10/23 06:15:00;;;;;;;3.58;2.70;;;;;;;8.92;100.00;101234.22;5034121;28;20117;-91
2023/10/23 06:17:26;;;;;;;6.85;2.90;;;;;;;8.96;100.00;101235.19;5033772;28;20033;-91
2023/10/23 06:19:51;;;;;;;14.65;2.95;;;;;;;8.96;100.00;101245.72;5036212;28;20063;-90
2023/10/23 06:22:17;;;;;;;8.13;2.83;;;;;;;8.99;100.00;101248.41;5033692;28;20104;-90
2023/10/23 06:24:44;;;;;;;8.68;2.72;;;;;;;8.86;100.00;101236.69;5036377;28;20026;-90
2023/10/23 06:27:10;;;;;;;6.60;2.80;;;;;;;8.96;100.00;101248.34;5032616;28;20041;-90
2023/10/23 06:29:35;;;;;;;3.22;2.70;;;;;;;8.88;100.00;101231.47;5032967;28;20041;-90
2023/10/23 06:32:01;;;;;;;4.88;3.13;;;;;;;9.01;100.00;101246.72;5033939;28;20103;-90
2023/10/23 06:34:26;;;;;;;4.88;3.28;;;;;;;9.05;100.00;101250.31;5034945;28;20551;-90
2023/10/23 06:36:51;;;;;;;8.18;3.17;;;;;;;8.99;100.00;101236.16;5035649;28;20044;-90
2023/10/23 06:39:17;;;;;;;21.35;3.42;;;;;;;8.97;100.00;101240.47;5034849;28;20519;-90
2023/10/23 06:41:42;;;;;;;8.27;3.20;;;;;;;9.00;100.00;101255.47;5033661;28;20120;-89
2023/10/23 06:44:07;;;;;;;6.25;3.20;;;;;;;8.72;100.00;101217.03;5034475;28;20029;-90
2023/10/23 06:46:33;;;;;;;7.25;3.20;;;;;;;8.99;100.00;101258.94;5037147;28;20045;-90
2023/10/23 06:48:58;;;;;;;9.63;3.50;;;;;;;8.97;100.00;101258.91;5038285;28;20061;-90
2023/10/23 06:51:24;;;;;;;6.50;3.40;;;;;;;8.93;100.00;101240.38;5036686;28;20117;-89
2023/10/23 06:53:49;;;;;;;7.80;5.45;;;;;;;8.88;100.00;101223.56;5041363;28;20029;-90
2023/10/23 06:56:14;;;;;;;5.30;3.33;;;;;;;9.09;100.00;101253.06;5046305;28;20034;-89
2023/10/23 06:58:40;;;;;;;5.38;3.00;;;;;;;9.21;100.00;101249.81;5039564;28;20037;-91
2023/10/23 07:01:07;;;;;;;5.32;3.28;;;;;;;9.32;100.00;101235.09;5017202;28;20045;-90
2023/10/23 07:03:33;;;;;;;4.57;3.38;;;;;;;9.52;100.00;101244.34;5036335;28;20100;-91
2023/10/23 07:05:58;;;;;;;5.25;3.33;;;;;;;9.49;100.00;101217.91;5033599;28;20204;-90
2023/10/23 07:08:24;;;;;;;4.80;3.20;;;;;;;9.72;100.00;101236.88;5032476;28;20426;-91
2023/10/23 07:10:49;;;;;;;5.38;3.30;;;;;;;9.82;100.00;101232.66;5032720;28;20067;-90
2023/10/23 07:13:15;;;;;;;6.75;3.67;;;;;;;10.13;100.00;101243.81;5032823;28;20506;-90
2023/10/23 07:15:40;;;;;;;5.30;3.80;;;;;;;10.30;100.00;101237.13;5032527;28;20091;-91
2023/10/23 07:18:05;;;;;;;6.93;3.83;;;;;;;10.56;100.00;101242.84;5031856;28;20044;-90
2023/10/23 07:20:31;;;;;;;5.85;3.70;;;;;;;10.67;100.00;101221.91;5032713;28;20033;-90
2023/10/23 07:22:56;;;;;;;4.88;3.30;;;;;;;10.89;100.00;101231.06;5031202;28;20052;-90
2023/10/23 07:25:22;;;;;;;5.65;3.80;;;;;;;11.12;100.00;101239.34;5032651;28;20120;-90
2023/10/23 07:27:49;;;;;;;5.22;3.70;;;;;;;11.18;99.96;101232.41;5032526;28;20038;-90
2023/10/23 07:30:14;;;;;;;6.60;3.90;;;;;;;11.38;99.57;101237.94;5031565;28;20430;-90
2023/10/23 07:32:40;;;;;;;7.85;3.83;;;;;;;11.46;98.52;101236.28;5032418;28;20481;-89
2023/10/23 07:35:08;;;;;;;8.57;4.07;;;;;;;11.59;99.00;101233.81;5031339;28;20124;-89
2023/10/23 07:37:33;;;;;;;5.10;3.70;;;;;;;11.74;99.39;101220.78;5032514;28;20427;-90
2023/10/23 07:40:04;;;;;;;6.65;3.90;;;;;;;11.92;97.51;101238.66;5031279;28;20038;-89
2023/10/23 07:42:30;;;;;;;8.02;3.80;;;;;;;12.01;97.80;101246.72;5032354;28;20029;-89
2023/10/23 07:44:55;;;;;;;8.82;4.07;;;;;;;12.00;97.64;101239.66;5033158;28;20394;-89
2023/10/23 07:47:20;;;;;;;8.23;4.30;;;;;;;11.96;97.04;101240.47;5036175;28;20029;-89
2023/10/23 07:49:46;;;;;;;9.05;4.20;;;;;;;11.90;97.02;101230.69;5036394;28;20029;-90
2023/10/23 07:52:11;;;;;;;10.15;4.38;;;;;;;12.25;98.51;101252.28;5036214;28;20381;-89
2023/10/23 07:54:36;;;;;;;7.60;4.22;;;;;;;12.32;97.10;101250.56;5035196;28;20127;-89
2023/10/23 07:57:02;;;;;;;6.13;4.07;;;;;;;12.45;95.96;101235.69;5035041;28;20087;-90
2023/10/23 07:59:27;;;;;;;8.13;4.40;;;;;;;12.62;94.80;101246.44;5036372;28;20036;-89
2023/10/23 08:01:53;;;;;;;8.18;4.35;;;;;;;12.84;95.56;101240.44;5036305;28;20096;-88
2023/10/23 08:04:19;;;;;;;7.95;4.25;;;;;;;12.83;94.57;101212.13;5034888;28;20129;-90
2023/10/23 08:06:44;;;;;;;8.15;5.30;;;;;;;13.26;95.64;101247.84;5036002;28;20036;-87
2023/10/23 08:09:11;;;;;;;13.80;11.13;;;;;;;13.42;94.32;101259.44;5034752;28;20034;-91
2023/10/23 08:11:36;;;;;;;9.20;4.70;;;;;;;13.38;91.95;101243.47;5041184;28;20033;-91
2023/10/23 08:14:01;;;;;;;8.52;4.68;;;;;;;13.55;92.55;101238.28;5035662;28;20520;-91
2023/10/23 08:16:27;;;;;;;8.48;4.88;;;;;;;13.50;92.14;101238.25;5034581;28;20033;-91
2023/10/23 08:18:52;;;;;;;7.20;4.40;;;;;;;13.51;92.31;101217.00;5035970;28;20029;-90
2023/10/23 08:21:18;;;;;;;9.82;4.70;;;;;;;13.57;91.48;101234.72;5035750;28;20059;-88
2023/10/23 08:23:46;;;;;;;9.95;4.57;;;;;;;13.37;91.76;101221.38;5035203;28;20042;-96
2023/10/23 08:26:14;;;;;;;12.00;5.70;;;;;;;13.48;92.91;101219.63;5036522;28;20029;-94
2023/10/23 08:28:40;;;;;;;7.22;4.63;;;;;;;13.50;91.83;101227.63;5034767;28;20037;-90
2023/10/23 08:31:08;;;;;;;9.27;4.55;;;;;;;13.58;92.11;101222.34;5035471;28;20063;-89
2023/10/23 08:33:33;;;;;;;9.60;4.60;;;;;;;13.45;91.82;101201.06;5035889;28;20046;-88
2023/10/23 08:35:58;;;;;;;10.43;4.47;;;;;;;13.65;92.20;101240.97;5035515;28;20121;-87
2023/10/23 08:38:24;;;;;;;11.90;5.43;;;;;;;13.44;93.20;101187.75;5035490;28;20037;-88
2023/10/23 08:40:50;;;;;;;9.48;5.00;;;;;;;13.68;91.17;101237.44;5035332;28;20043;-87
2023/10/23 08:43:16;;;;;;;10.60;4.80;;;;;;;13.70;91.28;101222.38;5035183;28;20124;-91
2023/10/23 08:45:43;;;;;;;11.57;4.70;;;;;;;13.85;91.66;101248.13;5033429;28;20041;-91
2023/10/23 08:48:08;;;;;;;9.75;4.82;;;;;;;13.70;91.04;101199.41;5035352;28;20029;-90
2023/10/23 08:50:36;;;;;;;9.43;4.53;;;;;;;14.04;89.80;101245.53;5033983;28;20037;-89
2023/10/23 08:53:07;;;;;;;13.07;4.90;;;;;;;14.04;90.06;101234.00;5018015;28;20041;-91
2023/10/23 08:55:33;;;;;;;10.60;5.00;;;;;;;14.08;89.71;101243.78;5035869;28;20040;-92
2023/10/23 08:58:09;;;;;;;15.95;5.03;;;;;;;14.27;91.94;101248.25;5033228;28;20041;-95
2023/10/23 09:00:37;;;;;;;13.48;4.80;;;;;;;14.27;88.67;101232.31;5035188;28;20462;-92
2023/10/23 09:03:05;;;;;;;13.82;4.80;;;;;;;14.52;90.87;101240.34;5039201;28;20049;-93
2023/10/23 09:05:30;;;;;;;6.78;4.50;;;;;;;14.70;88.92;101243.03;5035484;28;20037;-94
2023/10/23 09:07:56;;;;;;;9.13;4.72;;;;;;;14.89;88.74;101235.03;5033594;28;20038;-93
2023/10/23 09:11:15;;;;;;;11.75;4.35;;;;;;;14.94;88.25;101243.88;5037635;28;20014;-92
2023/10/23 09:16:41;;;;;;;10.07;4.40;;;;;;;14.94;88.19;101201.31;5033660;28;20406;-89
2023/10/23 09:19:27;;;;;;;9.93;4.30;;;;;;;15.01;86.17;101208.41;5034972;28;20087;-90
2023/10/23 09:21:56;;;;;;;11.50;4.15;;;;;;;14.89;85.74;101173.81;5036574;28;20415;-93
2023/10/23 09:24:24;;;;;;;9.75;3.97;;;;;;;14.92;85.42;101172.06;5034763;28;20036;-94
2023/10/23 09:26:53;;;;;;;10.02;4.30;;;;;;;15.04;86.36;101192.44;5037131;28;20052;-90
2023/10/23 09:29:25;;;;;;;9.55;4.28;;;;;;;15.03;85.14;101174.66;5037224;28;20037;-91
2023/10/23 09:31:54;;;;;;;12.68;4.13;;;;;;;15.35;85.68;101218.97;5037188;28;20025;-92
2023/10/23 09:34:22;;;;;;;12.52;4.55;;;;;;;15.49;85.51;101217.16;5040817;28;20543;-93
2023/10/23 09:36:55;;;;;;;16.30;4.97;;;;;;;15.26;85.08;101177.28;5041191;28;20104;-94
2023/10/23 09:39:26;;;;;;;9.27;4.00;;;;;;;15.18;85.56;101145.38;5045827;28;20021;-94
2023/10/23 09:42:08;;;;;;;;;;;;;;;;;;;;;
2023/10/23 09:44:40;;;;;;;;;;;;;;;15.75;88.01;101206.41;5047356;28;20100;-92
2023/10/23 09:47:10;;;;;;;9.63;3.90;;;;;;;15.38;85.49;101147.97;5051230;28;19897;-93
2023/10/23 09:49:44;;;;;;;13.52;4.57;;;;;;;15.53;85.45;101168.31;5053555;28;20041;-96
2023/10/23 09:52:23;;;;;;;11.65;4.30;;;;;;;15.39;84.04;101180.81;5049731;28;20029;-90
2023/10/23 09:55:06;;;;;;;;;;;;;;;;;;;;;
2023/10/23 09:58:15;;;;;;;15.60;4.68;;;;;;;15.30;88.28;101149.78;5037623;28;20641;-87
2023/10/23 10:00:52;;;;;;;11.88;4.57;;;;;;;15.15;85.93;101144.47;5035147;28;20030;-87
2023/10/23 10:03:22;;;;;;;10.05;4.80;;;;;;;15.13;85.89;101141.84;5035991;28;20048;-88
2023/10/23 10:06:00;;;;;;;10.05;4.05;;;;;;;15.21;85.31;101165.78;5041340;28;20109;-88
2023/10/23 10:08:36;;;;;;;12.10;3.90;;;;;;;15.07;86.27;101140.97;5051118;28;20058;-88
2023/10/23 10:11:06;;;;;;;11.77;3.90;;;;;;;15.37;86.23;101177.25;5052407;28;20029;-90
2023/10/23 10:13:37;;;;;;;13.30;4.20;;;;;;;15.24;85.65;101148.00;5053050;28;20077;-90
2023/10/23 10:16:05;;;;;;;11.40;4.20;;;;;;;15.09;85.85;101142.75;5053256;28;20025;-94
2023/10/23 10:18:34;;;;;;;11.05;4.30;;;;;;;15.17;86.59;101132.94;5054702;28;20101;-94
2023/10/23 10:21:04;;;;;;;11.55;4.28;;;;;;;15.55;85.43;101186.97;5055657;28;20068;-92
2023/10/23 10:23:30;;;;;;;9.50;4.13;;;;;;;15.48;84.96;101189.63;5053667;28;20048;-95
2023/10/23 10:26:00;;;;;;;14.02;4.60;;;;;;;15.15;84.95;101145.38;5055464;28;20041;-94
2023/10/23 10:28:30;;;;;;;12.80;4.03;;;;;;;15.25;84.71;101163.09;5052375;28;20037;-89
2023/10/23 10:30:55;;;;;;;12.70;4.60;;;;;;;15.25;84.62;101165.75;5041756;28;20036;-89
2023/10/23 10:33:29;;;;;;;11.80;4.35;;;;;;;15.02;84.72;101138.31;5037339;28;20034;-89
2023/10/23 10:35:58;;;;;;;11.85;4.75;;;;;;;15.02;85.97;101147.19;5034394;28;20026;-87
2023/10/23 10:38:25;;;;;;;11.07;4.10;;;;;;;15.17;86.16;101151.59;5043191;28;20091;-92
2023/10/23 10:41:00;;;;;;;10.93;4.40;;;;;;;15.21;87.20;101145.38;5048422;28;20049;-90
2023/10/23 10:43:31;;;;;;;12.73;4.65;;;;;;;15.22;86.40;101152.44;5046120;28;20099;-89
2023/10/23 10:45:56;;;;;;;8.80;4.07;;;;;;;15.38;87.12;101149.75;5043593;28;20042;-89
2023/10/23 10:48:24;;;;;;;14.15;3.92;;;;;;;15.34;85.88;101145.31;5050090;28;20034;-88
2023/10/23 10:50:50;;;;;;;10.10;4.13;;;;;;;15.39;85.25;101143.53;5043606;28;20025;-87
2023/10/23 10:53:15;;;;;;;13.68;3.92;;;;;;;15.47;84.46;101150.59;5012396;28;20022;-90
2023/10/23 10:55:44;;;;;;;14.35;4.28;;;;;;;15.56;85.51;101144.31;5029001;28;20022;-93
2023/10/23 10:58:10;;;;;;;14.52;4.50;;;;;;;15.65;86.04;101138.97;5038761;28;20044;-91
2023/10/23 11:00:37;;;;;;;10.23;4.18;;;;;;;15.64;84.95;101117.66;5037170;28;20553;-90
2023/10/23 11:03:03;;;;;;;9.50;4.15;;;;;;;15.79;83.73;101125.56;5036795;28;20083;-90
2023/10/23 11:05:29;;;;;;;10.15;4.28;;;;;;;15.71;83.20;101109.63;5037989;28;20025;-90
2023/10/23 11:07:54;;;;;;;11.65;4.15;;;;;;;15.61;82.95;101094.56;5038352;28;20042;-89
2023/10/23 11:10:20;;;;;;;17.60;4.63;;;;;;;15.71;82.89;101111.41;5037674;28;20438;-88
2023/10/23 11:12:47;;;;;;;12.23;4.10;;;;;;;15.60;83.67;101086.59;5049740;28;20456;-90
2023/10/23 11:15:13;;;;;;;14.13;4.45;;;;;;;15.75;84.63;101103.38;5040714;28;20044;-93
2023/10/23 11:17:41;;;;;;;13.57;4.28;;;;;;;15.78;82.75;101097.16;5027257;28;20042;-94
2023/10/23 11:20:11;;;;;;;11.05;4.20;;;;;;;15.60;82.46;101089.25;5017674;28;20034;-89
2023/10/23 11:22:48;;;;;;;11.32;4.40;;;;;;;15.66;82.75;101089.25;5017110;28;20423;-92
2023/10/23 11:25:14;;;;;;;13.27;4.50;;;;;;;15.66;82.85;101089.25;5019274;28;20040;-92
2023/10/23 11:27:40;;;;;;;13.68;4.60;;;;;;;15.38;83.18;101054.75;5018578;28;20034;-92
2023/10/23 11:30:07;;;;;;;12.30;4.55;;;;;;;15.50;82.96;101069.75;5018803;28;20037;-91